Time;durP1;ratioP1;P1;durP2;ratioP2;P2;SDS_P1;SDS_P2;PMS_P1;PMS_P2;Temp;Humidity;BMP_temperature;BMP_pressure;BME280_temperature;BME280_humidity;BME280_pressure;Samples;Min_cycle;Max_cycle;Signal;HPM_P1;HPM_P2
2022/11/03 00:00:09;;;;;;;18.15;4.22;;;11.40;72.80;;;;;;5053260;28;20028;-49
2022/11/03 00:02:35;;;;;;;13.05;2.17;;;11.40;72.70;;;;;;5051857;28;20131;-49
2022/11/03 00:06:03;;;;;;;6.90;1.58;;;11.40;72.80;;;;;;5052001;28;20040;-49
2022/11/03 00:07:46;;;;;;;8.60;2.38;;;11.50;72.50;;;;;;5052898;28;20021;-49
2022/11/03 00:10:12;;;;;;;16.27;4.00;;;11.50;72.70;;;;;;5052847;28;20079;-48
2022/11/03 00:12:37;;;;;;;17.10;4.57;;;11.40;73.00;;;;;;5052723;28;20032;-50
2022/11/03 00:15:03;;;;;;;17.10;2.40;;;11.50;72.50;;;;;;5051560;28;20032;-48
2022/11/03 00:17:29;;;;;;;12.10;1.98;;;11.40;72.70;;;;;;5053042;28;20029;-51
2022/11/03 00:19:54;;;;;;;7.53;3.08;;;11.30;73.00;;;;;;5052951;28;20472;-48
2022/11/03 00:22:20;;;;;;;13.95;2.80;;;11.40;72.90;;;;;;5053337;28;20013;-50
2022/11/03 00:24:46;;;;;;;10.63;2.80;;;11.40;72.60;;;;;;5052948;28;20025;-49
2022/11/03 00:27:11;;;;;;;7.38;1.65;;;11.40;72.60;;;;;;5053017;28;20029;-48
2022/11/03 00:29:37;;;;;;;11.05;2.47;;;11.50;72.60;;;;;;5052663;28;20337;-49
2022/11/03 00:32:03;;;;;;;6.22;1.70;;;11.50;72.60;;;;;;5052892;28;20032;-51
2022/11/03 00:34:28;;;;;;;11.45;2.15;;;11.60;72.50;;;;;;5052866;28;20064;-52
2022/11/03 00:36:54;;;;;;;7.70;1.50;;;11.60;72.40;;;;;;5053419;28;20098;-49
2022/11/03 00:39:20;;;;;;;9.60;1.98;;;11.60;72.70;;;;;;5052926;28;20380;-50
2022/11/03 00:41:45;;;;;;;6.85;1.50;;;11.60;72.70;;;;;;5053812;28;20020;-49
2022/11/03 00:44:12;;;;;;;8.63;2.00;;;11.60;73.00;;;;;;5056707;28;20510;-50
2022/11/03 00:46:37;;;;;;;4.57;1.40;;;11.60;72.90;;;;;;5056615;28;20428;-51
2022/11/03 00:49:04;;;;;;;8.15;1.88;;;11.70;73.00;;;;;;5055357;28;20032;-50
2022/11/03 00:51:30;;;;;;;12.48;2.00;;;11.80;72.90;;;;;;5055476;28;20499;-53
2022/11/03 00:53:58;;;;;;;9.82;2.42;;;11.70;73.30;;;;;;5056572;28;20029;-50
2022/11/03 00:56:29;;;;;;;11.52;2.22;;;11.80;73.30;;;;;;5056304;28;20412;-48
2022/11/03 00:58:57;;;;;;;9.45;2.10;;;11.80;73.30;;;;;;5056308;28;20025;-51
2022/11/03 01:01:25;;;;;;;6.63;2.13;;;11.80;73.20;;;;;;5056483;28;20409;-48
2022/11/03 01:06:48;;;;;;;12.85;2.75;;;11.80;73.60;;;;;;5056716;28;20059;-50
2022/11/03 01:09:16;;;;;;;12.95;3.08;;;11.70;73.70;;;;;;5056544;28;20481;-48
2022/11/03 01:11:47;;;;;;;5.32;1.80;;;11.80;74.00;;;;;;5056236;28;20025;-49
2022/11/03 01:14:15;;;;;;;9.45;1.92;;;11.80;74.00;;;;;;5056216;28;20029;-49
2022/11/03 01:16:41;;;;;;;13.85;2.70;;;11.80;74.00;;;;;;5056080;28;20550;-48
2022/11/03 01:19:07;;;;;;;14.18;4.18;;;11.80;73.90;;;;;;5055840;28;20493;-49
2022/11/03 01:21:33;;;;;;;7.65;1.90;;;11.80;74.00;;;;;;5056325;28;20025;-49
2022/11/03 01:24:03;;;;;;;9.10;1.75;;;11.80;73.80;;;;;;5055867;28;20082;-48
2022/11/03 01:26:29;;;;;;;5.05;1.98;;;11.80;73.70;;;;;;5055898;28;20017;-47
2022/11/03 01:28:55;;;;;;;16.33;3.30;;;11.80;73.80;;;;;;5055843;28;20025;-49
2022/11/03 01:31:23;;;;;;;5.90;1.98;;;11.80;73.80;;;;;;5056015;28;20032;-49
2022/11/03 01:33:50;;;;;;;11.88;2.15;;;11.90;73.90;;;;;;5055778;28;20013;-48
2022/11/03 01:36:16;;;;;;;10.68;3.70;;;11.80;74.00;;;;;;5055629;28;20104;-49
2022/11/03 01:38:42;;;;;;;9.20;3.17;;;11.80;74.40;;;;;;5055585;28;20029;-50
2022/11/03 01:41:12;;;;;;;12.95;2.15;;;11.80;74.40;;;;;;5055852;28;20021;-52
2022/11/03 01:43:38;;;;;;;8.02;2.13;;;11.80;74.50;;;;;;5055524;28;20109;-52
2022/11/03 01:46:04;;;;;;;7.25;2.33;;;11.80;74.50;;;;;;5055590;28;20506;-53
2022/11/03 01:48:31;;;;;;;10.23;1.92;;;11.80;74.70;;;;;;5054186;28;20066;-51
2022/11/03 01:50:57;;;;;;;7.38;2.65;;;11.80;74.70;;;;;;5055377;28;20029;-49
2022/11/03 01:53:23;;;;;;;10.95;2.40;;;11.70;74.90;;;;;;5055247;28;20489;-50
2022/11/03 01:55:50;;;;;;;16.58;2.10;;;11.70;75.20;;;;;;5054056;28;20032;-48
2022/11/03 01:58:20;;;;;;;11.65;1.90;;;11.50;75.50;;;;;;5055498;28;20393;-51
2022/11/03 02:00:49;;;;;;;12.38;2.25;;;11.50;75.60;;;;;;5054943;28;20029;-52
2022/11/03 02:03:16;;;;;;;11.63;2.33;;;11.50;75.70;;;;;;5055028;28;20017;-50
2022/11/03 02:05:44;;;;;;;13.02;2.35;;;11.50;75.70;;;;;;5055043;28;20021;-48
2022/11/03 02:08:20;;;;;;;12.77;5.25;;;11.60;75.70;;;;;;5055026;28;20021;-48
2022/11/03 02:10:49;;;;;;;7.32;2.03;;;11.50;75.80;;;;;;5054915;28;20021;-49
2022/11/03 02:13:22;;;;;;;6.10;1.85;;;11.60;75.80;;;;;;5055202;28;20071;-48
2022/11/03 02:15:51;;;;;;;13.77;3.00;;;11.50;76.10;;;;;;5055151;28;20031;-49
2022/11/03 02:18:20;;;;;;;18.95;3.55;;;11.50;76.00;;;;;;5054808;28;20477;-50
2022/11/03 02:20:52;;;;;;;10.63;2.80;;;11.40;76.30;;;;;;5054650;28;20045;-48
2022/11/03 02:23:51;;;;;;;11.07;2.72;;;11.40;76.30;;;;;;5055389;28;20314;-47
2022/11/03 02:26:17;;;;;;;14.25;3.55;;;11.50;76.30;;;;;;5051669;28;20059;-49
2022/11/03 02:32:18;;;;;;;12.93;2.35;;;11.50;76.40;;;;;;5056303;28;20024;-49
2022/11/03 02:35:01;;;;;;;12.63;2.75;;;11.50;76.20;;;;;;5056292;28;20382;-48
2022/11/03 02:37:30;;;;;;;6.57;2.42;;;11.50;76.40;;;;;;5056337;28;20021;-49
2022/11/03 02:40:02;;;;;;;7.00;2.42;;;11.50;76.50;;;;;;5056631;28;20029;-48
2022/11/03 02:42:29;;;;;;;19.77;3.30;;;11.40;76.50;;;;;;5056605;28;20424;-50
2022/11/03 02:44:59;;;;;;;10.63;2.03;;;11.40;76.70;;;;;;5056718;28;20475;-49
2022/11/03 02:47:26;;;;;;;12.45;3.20;;;11.40;76.90;;;;;;5055771;28;20525;-49
2022/11/03 02:49:53;;;;;;;9.65;2.25;;;11.40;76.90;;;;;;5056989;28;20041;-49
2022/11/03 02:52:35;;;;;;;8.10;2.13;;;11.50;76.80;;;;;;5056554;28;20060;-51
2022/11/03 02:55:09;;;;;;;11.90;2.75;;;11.50;76.90;;;;;;5056717;28;20025;-49
2022/11/03 02:57:57;;;;;;;11.80;2.55;;;11.50;76.80;;;;;;5055519;28;20385;-48
2022/11/03 03:00:23;;;;;;;8.60;2.25;;;11.50;77.00;;;;;;5054758;28;20118;-49
2022/11/03 03:03:10;;;;;;;14.65;2.42;;;11.50;77.00;;;;;;5054272;28;20056;-50
2022/11/03 03:05:39;;;;;;;11.32;2.45;;;11.40;77.30;;;;;;5054147;28;20079;-52
2022/11/03 03:08:09;;;;;;;16.43;3.57;;;11.40;77.30;;;;;;5036932;28;20472;-49
2022/11/03 03:10:45;;;;;;;19.58;3.55;;;11.40;77.50;;;;;;5053982;28;20021;-50
2022/11/03 03:13:15;;;;;;;8.40;1.90;;;11.40;77.50;;;;;;5054143;28;20033;-51
2022/11/03 03:15:49;;;;;;;12.52;2.38;;;11.40;77.60;;;;;;5054037;28;20064;-48
2022/11/03 03:18:18;;;;;;;8.82;3.10;;;11.40;77.50;;;;;;5053981;28;20124;-48
2022/11/03 03:20:55;;;;;;;14.00;3.60;;;11.40;77.70;;;;;;5053507;28;20056;-49
2022/11/03 03:23:32;;;;;;;13.00;2.40;;;11.30;78.00;;;;;;5053599;28;20021;-49
2022/11/03 03:26:08;;;;;;;16.90;4.40;;;11.40;78.00;;;;;;5053660;28;20082;-48
2022/11/03 03:28:39;;;;;;;7.05;2.33;;;11.40;77.80;;;;;;5053848;28;20063;-48
2022/11/03 03:31:09;;;;;;;12.63;2.05;;;11.40;77.90;;;;;;5054215;28;20303;-49
2022/11/03 03:33:37;;;;;;;6.88;1.92;;;11.40;78.10;;;;;;5053513;28;20020;-54
2022/11/03 03:36:08;;;;;;;14.65;3.10;;;11.50;77.70;;;;;;5053708;28;20029;-53
2022/11/03 03:38:43;;;;;;;13.43;3.13;;;11.50;77.80;;;;;;5053674;28;20040;-48
2022/11/03 03:41:20;;;;;;;6.47;2.30;;;11.50;77.80;;;;;;5052770;28;20029;-49
2022/11/03 03:43:51;;;;;;;7.30;2.33;;;11.40;78.00;;;;;;5053324;28;20044;-48
2022/11/03 03:46:17;;;;;;;;;;;11.50;78.10;;;;;;5052401;28;20021;-48
2022/11/03 03:48:43;;;;;;;13.30;3.67;;;11.40;78.00;;;;;;5052013;28;19905;-48
2022/11/03 03:51:10;;;;;;;6.78;2.05;;;11.40;78.40;;;;;;5053390;28;20039;-49
2022/11/03 03:53:36;;;;;;;10.48;2.03;;;11.40;78.20;;;;;;5053159;28;20021;-48
2022/11/03 03:56:04;;;;;;;18.63;3.78;;;11.40;78.30;;;;;;5053302;28;20041;-49
2022/11/03 03:58:30;;;;;;;9.57;2.33;;;11.40;78.50;;;;;;5053385;28;20048;-49
2022/11/03 04:00:55;;;;;;;12.07;3.08;;;11.40;78.40;;;;;;5052991;28;20065;-48
2022/11/03 04:03:24;;;;;;;10.45;2.03;;;11.40;78.70;;;;;;5053100;28;20029;-49
2022/11/03 04:05:52;;;;;;;4.82;1.73;;;11.40;78.60;;;;;;5053124;28;20025;-49
2022/11/03 04:08:18;;;;;;;8.02;3.15;;;11.40;78.60;;;;;;5053062;28;20065;-48
2022/11/03 04:22:15;;;;;;;6.65;2.33;;;11.40;78.50;;;;;;5053078;28;20043;-49
2022/11/03 04:24:30;;;;;;;5.63;2.00;;;11.60;78.30;;;;;;5052994;28;20051;-49
2022/11/03 04:27:11;;;;;;;7.68;1.85;;;11.60;78.30;;;;;;5053086;28;20021;-50
2022/11/03 04:29:37;;;;;;;10.27;2.67;;;11.60;78.10;;;;;;5053101;28;20021;-52
2022/11/03 04:32:13;;;;;;;7.57;2.20;;;11.60;78.30;;;;;;5053144;28;20067;-49
2022/11/03 04:34:39;;;;;;;7.38;2.20;;;11.50;78.60;;;;;;5053097;28;20025;-49
2022/11/03 04:37:10;;;;;;;6.57;1.92;;;11.60;78.30;;;;;;5053324;28;20140;-49
2022/11/03 04:39:36;;;;;;;4.68;1.67;;;11.70;78.10;;;;;;5052551;28;20500;-51
2022/11/03 04:42:07;;;;;;;7.00;2.00;;;11.70;78.20;;;;;;5052829;28;20021;-50
2022/11/03 04:44:33;;;;;;;10.80;2.78;;;11.70;78.30;;;;;;5052949;28;20025;-49
2022/11/03 04:46:59;;;;;;;8.35;2.97;;;11.80;78.10;;;;;;5052843;28;20032;-49
2022/11/03 04:49:25;;;;;;;10.82;2.80;;;11.80;78.30;;;;;;5052776;28;20496;-49
2022/11/03 04:51:50;;;;;;;6.50;3.13;;;11.80;78.40;;;;;;5052598;28;20104;-51
2022/11/03 04:54:21;;;;;;;8.18;2.13;;;11.80;78.20;;;;;;5052623;28;20048;-49
2022/11/03 04:56:46;;;;;;;16.25;3.50;;;11.90;78.10;;;;;;5052530;28;20029;-48
2022/11/03 04:59:14;;;;;;;12.63;3.22;;;11.90;78.00;;;;;;5052621;28;20036;-49
2022/11/03 05:01:41;;;;;;;10.18;2.00;;;11.90;78.10;;;;;;5052741;28;20484;-48
2022/11/03 05:04:15;;;;;;;7.45;1.83;;;11.90;78.20;;;;;;5052418;28;20104;-48
2022/11/03 05:06:47;;;;;;;5.28;1.73;;;11.80;78.70;;;;;;5052583;28;20032;-48
2022/11/03 05:09:16;;;;;;;12.30;2.38;;;11.90;78.50;;;;;;5052790;28;20044;-52
2022/11/03 05:11:44;;;;;;;13.07;2.47;;;11.80;78.60;;;;;;5052371;28;20035;-49
2022/11/03 05:14:18;;;;;;;7.65;1.67;;;11.80;78.70;;;;;;5052581;28;20029;-49
2022/11/03 05:16:44;;;;;;;3.55;1.67;;;11.80;78.80;;;;;;5052627;28;20036;-50
2022/11/03 05:19:17;;;;;;;10.18;2.47;;;11.80;78.80;;;;;;5052079;28;20084;-50
2022/11/03 05:21:43;;;;;;;7.90;2.72;;;11.90;78.80;;;;;;5052723;28;20096;-50
2022/11/03 05:24:12;;;;;;;14.57;1.98;;;11.80;78.90;;;;;;5052503;28;20056;-49
2022/11/03 05:26:38;;;;;;;11.15;2.58;;;11.90;78.90;;;;;;5052714;28;20025;-49
2022/11/03 05:29:13;;;;;;;12.20;2.42;;;11.90;79.00;;;;;;5056197;28;20068;-49
2022/11/03 05:31:41;;;;;;;9.55;1.92;;;12.10;78.40;;;;;;5055905;28;20108;-48
2022/11/03 05:34:20;;;;;;;8.95;2.60;;;12.10;78.30;;;;;;5055824;28;20099;-50
2022/11/03 05:36:45;;;;;;;13.50;2.72;;;12.10;78.50;;;;;;5055900;28;20037;-48
2022/11/03 05:39:30;;;;;;;8.00;1.88;;;12.00;78.40;;;;;;5055770;28;20032;-49
2022/11/03 05:42:00;;;;;;;9.40;2.67;;;12.10;78.10;;;;;;5055894;28;20461;-48
2022/11/03 05:44:38;;;;;;;13.90;3.42;;;12.10;78.10;;;;;;5055555;28;20063;-52
2022/11/03 05:47:36;;;;;;;5.55;1.83;;;12.00;78.30;;;;;;5055727;28;20514;-48
2022/11/03 05:50:18;;;;;;;15.93;2.92;;;12.00;78.40;;;;;;5051113;28;20083;-48
2022/11/03 05:52:46;;;;;;;5.68;2.13;;;12.10;78.10;;;;;;5055607;28;20074;-48
2022/11/03 05:55:33;;;;;;;10.32;2.42;;;12.20;78.00;;;;;;5055466;28;20029;-47
2022/11/03 05:58:06;;;;;;;12.38;2.38;;;12.20;78.00;;;;;;5055389;28;20036;-48
2022/11/03 06:00:38;;;;;;;9.85;2.05;;;12.20;77.70;;;;;;5055323;28;20067;-49
2022/11/03 06:03:05;;;;;;;8.70;1.70;;;12.30;77.50;;;;;;5055195;28;20056;-55
2022/11/03 06:05:34;;;;;;;5.90;1.90;;;12.30;77.40;;;;;;5055075;28;20029;-48
2022/11/03 06:08:10;;;;;;;16.87;4.33;;;12.30;77.30;;;;;;5054980;28;20021;-47
2022/11/03 06:10:40;;;;;;;13.95;2.53;;;12.30;77.30;;;;;;5053621;28;20060;-49
2022/11/03 06:13:38;;;;;;;7.45;2.65;;;12.30;77.20;;;;;;5054893;28;20413;-50
2022/11/03 16:07:15;;;;;;;4.15;1.98;;;12.90;79.50;;;;;;5071451;28;20386;-48
2022/11/03 16:09:41;;;;;;;3.35;2.33;;;12.80;81.00;;;;;;5070533;28;20047;-50
2022/11/03 16:12:07;;;;;;;7.85;2.60;;;12.60;81.30;;;;;;5068778;28;20028;-52
2022/11/03 16:14:32;;;;;;;7.13;2.83;;;12.60;81.60;;;;;;5052060;28;20028;-48
2022/11/03 16:16:58;;;;;;;8.38;2.97;;;12.60;82.00;;;;;;5070237;28;20123;-50
2022/11/03 16:19:24;;;;;;;6.63;2.72;;;12.50;82.70;;;;;;5070365;28;20028;-52
2022/11/03 16:21:50;;;;;;;14.45;4.50;;;12.40;83.00;;;;;;5070343;28;20495;-47
2022/11/03 16:24:17;;;;;;;4.72;2.05;;;12.40;83.00;;;;;;5068632;28;20035;-47
2022/11/03 16:26:42;;;;;;;6.47;2.92;;;12.50;82.10;;;;;;5070372;28;20384;-49
2022/11/03 16:29:08;;;;;;;8.50;3.40;;;12.50;82.10;;;;;;5070401;28;20021;-50
2022/11/03 16:31:34;;;;;;;7.15;3.20;;;12.40;82.60;;;;;;5069110;28;20024;-48
2022/11/03 16:34:00;;;;;;;7.40;2.85;;;12.40;83.00;;;;;;5070086;28;20021;-53
2022/11/03 16:36:26;;;;;;;8.82;2.30;;;12.40;83.10;;;;;;5069998;28;20376;-48
2022/11/03 16:38:52;;;;;;;5.72;2.25;;;12.50;83.20;;;;;;5070264;28;20029;-55
2022/11/03 16:41:17;;;;;;;3.17;2.50;;;12.40;83.20;;;;;;5069989;28;20075;-52
2022/11/03 16:43:45;;;;;;;6.90;2.78;;;12.40;83.70;;;;;;5070108;28;20021;-54
2022/11/03 16:46:10;;;;;;;9.38;2.65;;;12.40;83.70;;;;;;5069743;28;20108;-51
2022/11/03 16:48:36;;;;;;;3.60;2.28;;;12.30;84.20;;;;;;5069704;28;20073;-50
2022/11/03 16:51:01;;;;;;;10.23;3.85;;;12.30;84.70;;;;;;5069385;28;20495;-49
2022/11/03 16:53:27;;;;;;;9.43;3.08;;;12.20;85.00;;;;;;5069767;28;20035;-50
2022/11/03 16:55:53;;;;;;;10.70;3.47;;;12.30;85.00;;;;;;5069370;28;20036;-51
2022/11/03 16:58:18;;;;;;;7.80;3.13;;;12.20;85.20;;;;;;5069195;28;20029;-50
2022/11/03 17:00:47;;;;;;;8.68;2.97;;;12.20;85.20;;;;;;5069495;28;20028;-51
2022/11/03 17:03:12;;;;;;;6.82;2.85;;;12.20;85.50;;;;;;5069737;28;20032;-52
2022/11/03 17:05:38;;;;;;;8.05;2.85;;;12.20;85.50;;;;;;5068758;28;20049;-50
2022/11/03 17:08:04;;;;;;;8.38;2.55;;;12.20;85.50;;;;;;5069193;28;20381;-50
2022/11/03 17:10:30;;;;;;;7.75;3.83;;;12.20;85.60;;;;;;5069544;28;20017;-50
2022/11/03 17:12:57;;;;;;;7.40;3.42;;;12.20;85.80;;;;;;5067591;28;20024;-48
2022/11/03 17:15:23;;;;;;;11.98;7.15;;;12.20;85.90;;;;;;5068984;28;20426;-49
2022/11/03 17:17:49;;;;;;;10.98;4.25;;;12.10;86.30;;;;;;5059761;28;20021;-48
2022/11/03 17:20:16;;;;;;;5.38;3.13;;;12.10;86.20;;;;;;5055816;28;20339;-50
2022/11/03 17:22:42;;;;;;;6.70;2.85;;;12.20;86.00;;;;;;5054327;28;20497;-52
2022/11/03 17:25:09;;;;;;;6.63;3.33;;;12.10;86.20;;;;;;5055547;28;20511;-49
2022/11/03 17:27:51;;;;;;;6.20;3.83;;;12.20;86.30;;;;;;5055837;28;20021;-50
2022/11/03 17:30:28;;;;;;;6.25;3.50;;;12.20;86.50;;;;;;5056060;28;20029;-49
2022/11/03 17:32:58;;;;;;;4.85;2.85;;;12.20;86.30;;;;;;5055705;28;20025;-49
2022/11/03 17:35:38;;;;;;;11.25;3.85;;;12.20;86.60;;;;;;5055302;28;20032;-49
2022/11/03 17:38:12;;;;;;;6.40;3.25;;;12.20;86.60;;;;;;5055982;28;20045;-50
2022/11/03 17:40:39;;;;;;;7.47;3.30;;;12.20;86.80;;;;;;5054031;28;20025;-50
2022/11/03 17:43:25;;;;;;;8.85;3.20;;;12.20;86.80;;;;;;5056242;28;20433;-52
2022/11/03 17:45:52;;;;;;;9.00;3.55;;;12.10;86.90;;;;;;5056120;28;20025;-49
2022/11/03 17:48:18;;;;;;;7.40;2.95;;;12.20;86.50;;;;;;5055393;28;20029;-51
2022/11/03 17:50:46;;;;;;;5.03;3.22;;;12.20;86.20;;;;;;5055223;28;20381;-50
2022/11/03 17:53:22;;;;;;;5.32;3.03;;;12.20;86.30;;;;;;5055153;28;20036;-50
2022/11/03 17:55:50;;;;;;;8.13;4.45;;;12.20;86.20;;;;;;5055263;28;20108;-49
2022/11/03 17:58:15;;;;;;;7.75;3.40;;;12.30;86.00;;;;;;5055185;28;20025;-50
2022/11/03 18:00:41;;;;;;;5.05;3.13;;;12.30;85.80;;;;;;5055332;28;20104;-50
2022/11/03 18:03:13;;;;;;;10.40;3.70;;;12.30;85.70;;;;;;5055294;28;20085;-49
2022/11/03 18:05:40;;;;;;;8.05;3.15;;;12.30;85.70;;;;;;5054494;28;20049;-49
2022/11/03 18:08:09;;;;;;;6.97;3.08;;;12.20;85.80;;;;;;5053455;28;20036;-49
2022/11/03 18:10:42;;;;;;;6.80;3.47;;;12.20;86.10;;;;;;5055039;28;20036;-51
2022/11/03 18:13:21;;;;;;;9.80;4.22;;;12.30;86.00;;;;;;5054927;28;20108;-51
2022/11/03 18:16:00;;;;;;;12.82;5.63;;;12.30;85.50;;;;;;5055301;28;20055;-51
2022/11/03 18:18:35;;;;;;;10.32;4.45;;;12.30;85.50;;;;;;5055059;28;20104;-50
2022/11/03 18:21:01;;;;;;;6.68;3.30;;;12.30;85.40;;;;;;5054998;28;20021;-50
2022/11/03 18:23:32;;;;;;;7.30;2.95;;;12.40;85.40;;;;;;5054928;28;20484;-50
2022/11/03 18:25:59;;;;;;;5.82;3.33;;;12.40;85.10;;;;;;5054931;28;20098;-50
2022/11/03 18:28:25;;;;;;;7.82;4.25;;;12.40;84.90;;;;;;5054390;28;20024;-49
2022/11/03 18:30:53;;;;;;;7.93;3.88;;;12.40;84.90;;;;;;5053069;28;20029;-51
2022/11/03 18:33:29;;;;;;;9.05;2.90;;;12.40;84.80;;;;;;5054589;28;20029;-49
2022/11/03 18:35:56;;;;;;;11.10;3.92;;;12.40;84.90;;;;;;5054879;28;20452;-51
2022/11/03 18:38:23;;;;;;;7.72;3.67;;;12.40;84.90;;;;;;5054635;28;20021;-49
2022/11/03 18:40:49;;;;;;;5.93;2.88;;;12.40;84.70;;;;;;5054379;28;20025;-39
2022/11/03 18:43:18;;;;;;;10.10;3.72;;;12.40;84.90;;;;;;5054284;28;20032;-39
2022/11/03 18:45:43;;;;;;;6.78;3.67;;;12.30;85.30;;;;;;5055873;28;20354;-51
2022/11/03 18:48:18;;;;;;;8.55;3.78;;;12.30;85.60;;;;;;5054372;28;20028;-49
2022/11/03 18:50:47;;;;;;;5.88;3.47;;;12.30;85.70;;;;;;5054298;28;20503;-50
2022/11/03 18:53:15;;;;;;;8.27;3.03;;;12.30;85.70;;;;;;5053689;28;20377;-50
2022/11/03 18:55:41;;;;;;;11.85;5.32;;;12.30;85.90;;;;;;5052767;28;20025;-50
2022/11/03 18:58:15;;;;;;;6.32;3.22;;;12.30;86.20;;;;;;5054190;28;20485;-51
2022/11/03 19:00:41;;;;;;;5.57;4.13;;;12.30;86.20;;;;;;5054890;28;20052;-52
2022/11/03 19:03:16;;;;;;;8.23;4.32;;;12.30;85.80;;;;;;5053872;28;20172;-48
2022/11/03 19:05:46;;;;;;;7.60;3.38;;;12.30;85.90;;;;;;5053827;28;20045;-50
2022/11/03 19:08:28;;;;;;;10.00;4.05;;;12.30;85.90;;;;;;5053923;28;20017;-51
2022/11/03 19:10:55;;;;;;;7.35;4.10;;;12.30;85.70;;;;;;5052570;28;20052;-51
2022/11/03 19:13:28;;;;;;;8.30;3.80;;;12.40;85.80;;;;;;5054082;28;20532;-50
2022/11/03 19:15:58;;;;;;;9.30;3.33;;;12.40;85.60;;;;;;5053697;28;20059;-51
2022/11/03 19:18:26;;;;;;;8.27;4.22;;;12.40;85.70;;;;;;5052638;28;20028;-50
2022/11/03 19:20:52;;;;;;;10.05;4.00;;;12.40;85.90;;;;;;5054322;28;20041;-50
2022/11/03 19:23:17;;;;;;;8.50;4.70;;;12.40;85.80;;;;;;5052739;28;20079;-50
2022/11/03 19:25:44;;;;;;;12.82;4.90;;;12.30;85.80;;;;;;5053835;28;20029;-51
2022/11/03 19:28:18;;;;;;;8.20;4.22;;;12.40;85.90;;;;;;5051921;28;20021;-53
2022/11/03 19:30:44;;;;;;;6.45;3.88;;;12.40;86.00;;;;;;5053209;28;20028;-49
2022/11/03 19:33:18;;;;;;;7.00;3.30;;;12.40;86.10;;;;;;5052590;28;20465;-49
2022/11/03 19:35:44;;;;;;;7.18;3.63;;;12.40;86.10;;;;;;5054099;28;20118;-51
2022/11/03 19:38:13;;;;;;;6.10;3.72;;;12.40;86.00;;;;;;5053141;28;20084;-52
2022/11/03 19:42:26;;;;;;;4.90;3.13;;;12.30;86.10;;;;;;5052715;28;20037;-53
2022/11/03 19:43:25;;;;;;;6.30;3.78;;;12.40;86.10;;;;;;5052898;28;20380;-50
2022/11/03 19:45:54;;;;;;;6.90;4.32;;;12.30;86.30;;;;;;5051775;28;20496;-52
2022/11/03 19:48:20;;;;;;;6.22;3.00;;;12.30;86.40;;;;;;5052980;28;20370;-50
2022/11/03 19:50:49;;;;;;;6.05;3.05;;;12.30;86.40;;;;;;5053323;28;20028;-50
2022/11/03 19:53:22;;;;;;;7.55;3.38;;;12.30;86.70;;;;;;5052898;28;20331;-52
2022/11/03 19:55:48;;;;;;;3.35;2.83;;;12.30;86.60;;;;;;5052951;28;20017;-52
2022/11/03 19:58:24;;;;;;;5.93;3.75;;;12.30;86.70;;;;;;5052676;28;20029;-50
2022/11/03 20:00:51;;;;;;;5.40;4.20;;;12.30;86.80;;;;;;5051294;28;20048;-49
2022/11/03 20:03:16;;;;;;;10.07;3.63;;;12.30;86.90;;;;;;5034878;28;20127;-49
2022/11/03 20:05:44;;;;;;;7.40;3.53;;;12.30;87.20;;;;;;5052711;28;20049;-52
2022/11/03 20:08:14;;;;;;;5.25;3.45;;;12.20;87.30;;;;;;5053812;28;20428;-50
2022/11/03 20:10:41;;;;;;;4.10;3.53;;;12.20;87.50;;;;;;5052873;28;20021;-40
2022/11/03 20:13:11;;;;;;;5.47;3.53;;;12.20;87.60;;;;;;5052123;28;20033;-40
2022/11/03 20:15:36;;;;;;;7.30;3.75;;;12.20;87.80;;;;;;5053002;28;20449;-39
2022/11/03 20:18:02;;;;;;;5.97;3.30;;;12.10;87.80;;;;;;5052696;28;20119;-39
2022/11/03 20:20:33;;;;;;;3.45;2.70;;;12.10;88.10;;;;;;5052808;28;20075;-38
2022/11/03 20:22:59;;;;;;;5.28;2.70;;;12.00;88.10;;;;;;5053050;28;20187;-38
2022/11/03 20:25:28;;;;;;;9.45;3.83;;;12.10;88.30;;;;;;5052508;28;20025;-39
2022/11/03 20:27:58;;;;;;;3.50;2.50;;;12.10;88.20;;;;;;5052771;28;20063;-40
2022/11/03 20:30:25;;;;;;;4.65;3.05;;;12.10;88.10;;;;;;5052811;28;20025;-40
2022/11/03 20:32:52;;;;;;;8.82;3.88;;;12.10;88.00;;;;;;5053166;28;20026;-39
2022/11/03 20:35:23;;;;;;;4.63;2.60;;;12.20;88.00;;;;;;5052545;28;20025;-39
2022/11/03 20:37:52;;;;;;;3.80;3.03;;;12.00;88.10;;;;;;5052762;28;20032;-38
2022/11/03 20:40:21;;;;;;;4.50;2.97;;;12.10;88.20;;;;;;5052610;28;20060;-40
2022/11/03 20:42:54;;;;;;;5.75;2.95;;;12.10;88.10;;;;;;5052916;28;20022;-38
2022/11/03 20:45:21;;;;;;;8.43;3.00;;;12.20;88.00;;;;;;5053237;28;20099;-38
2022/11/03 20:47:47;;;;;;;5.45;2.78;;;12.20;88.00;;;;;;5052814;28;20120;-41
2022/11/03 20:50:15;;;;;;;4.72;3.03;;;12.20;87.90;;;;;;5051076;28;20031;-40
2022/11/03 20:52:42;;;;;;;7.95;2.80;;;12.20;87.70;;;;;;5054509;28;20075;-39
2022/11/03 20:55:20;;;;;;;4.90;2.88;;;12.20;87.60;;;;;;5056917;28;20029;-40
2022/11/03 20:57:46;;;;;;;5.30;2.60;;;12.30;87.20;;;;;;5056226;28;20025;-39
2022/11/03 21:00:20;;;;;;;4.90;3.35;;;12.30;87.20;;;;;;5056158;28;20048;-38
2022/11/03 21:02:48;;;;;;;5.90;3.05;;;12.30;87.10;;;;;;5056213;28;20024;-39
2022/11/03 21:05:19;;;;;;;5.72;2.47;;;12.30;86.90;;;;;;5055977;28;20420;-39
2022/11/03 21:07:45;;;;;;;6.97;2.63;;;12.40;86.20;;;;;;5056072;28;20024;-39
2022/11/03 21:10:12;;;;;;;2.30;1.92;;;12.40;86.30;;;;;;5054693;28;20384;-42
2022/11/03 21:12:38;;;;;;;6.00;3.83;;;12.40;86.00;;;;;;5055853;28;20032;-39
2022/11/03 21:20:59;;;;;;;3.53;2.30;;;12.40;86.30;;;;;;5055806;28;20031;-38
2022/11/03 21:23:27;;;;;;;4.40;2.42;;;12.30;86.30;;;;;;5055690;28;20059;-38
2022/11/03 21:25:53;;;;;;;4.18;2.25;;;12.30;86.50;;;;;;5054312;28;20032;-38
2022/11/03 21:28:20;;;;;;;2.97;2.17;;;12.40;86.30;;;;;;5054762;28;20021;-39
2022/11/03 21:30:48;;;;;;;5.35;3.25;;;12.40;86.40;;;;;;5055828;28;20061;-39
2022/11/03 21:33:15;;;;;;;4.45;2.05;;;12.40;86.30;;;;;;5055673;28;20017;-39
2022/11/03 21:35:42;;;;;;;3.72;2.15;;;12.40;86.10;;;;;;5055642;28;20021;-39
2022/11/03 21:38:09;;;;;;;4.05;2.40;;;12.40;86.00;;;;;;5055590;28;20092;-38
2022/11/03 21:40:35;;;;;;;3.60;2.13;;;12.40;86.10;;;;;;5055314;28;20025;-38
2022/11/03 21:45:45;;;;;;;3.90;2.63;;;12.40;86.30;;;;;;5055845;28;20151;-38
2022/11/03 21:51:04;;;;;;;3.72;1.92;;;12.40;86.10;;;;;;5055759;28;20385;-39
2022/11/03 21:53:30;;;;;;;5.15;2.42;;;12.50;85.70;;;;;;5055355;28;20064;-39
2022/11/03 21:55:55;;;;;;;3.67;2.25;;;12.50;85.70;;;;;;5056474;28;20373;-39
2022/11/03 21:58:21;;;;;;;3.53;2.13;;;12.40;85.90;;;;;;5055121;28;20025;-39
2022/11/03 22:00:47;;;;;;;4.53;2.25;;;12.40;85.70;;;;;;5053812;28;20177;-39
2022/11/03 22:03:13;;;;;;;5.40;2.30;;;12.50;85.70;;;;;;5054765;28;20031;-40
2022/11/03 22:05:39;;;;;;;8.13;2.50;;;12.50;85.80;;;;;;5054601;28;20439;-39
2022/11/03 22:08:08;;;;;;;10.50;2.70;;;12.40;85.80;;;;;;5054905;28;20021;-40
2022/11/03 22:10:39;;;;;;;4.80;2.90;;;12.50;85.60;;;;;;5054998;28;20481;-39
2022/11/03 22:13:05;;;;;;;7.82;2.55;;;12.40;85.60;;;;;;5055161;28;20377;-39
2022/11/03 22:18:14;;;;;;;6.10;2.00;;;12.40;85.80;;;;;;5054663;28;20082;-39
2022/11/03 22:31:50;;;;;;;1.88;1.70;;;12.30;85.90;;;;;;5053859;28;20017;-40
2022/11/03 22:37:00;;;;;;;4.20;2.58;;;12.40;85.60;;;;;;5054320;28;20036;-38
2022/11/03 22:47:40;;;;;;;4.60;2.65;;;12.40;85.20;;;;;;5054267;28;20075;-40
2022/11/03 22:50:05;;;;;;;3.72;2.53;;;12.50;85.30;;;;;;5054204;28;20041;-39
2022/11/03 22:52:31;;;;;;;3.90;2.47;;;12.50;85.10;;;;;;5054301;28;20024;-40
2022/11/03 22:54:57;;;;;;;4.13;2.35;;;12.50;85.00;;;;;;5053062;28;20048;-39
2022/11/03 22:57:22;;;;;;;3.28;2.42;;;12.50;84.80;;;;;;5054203;28;20017;-38
2022/11/03 22:59:48;;;;;;;4.40;2.85;;;12.40;85.20;;;;;;5053976;28;20128;-39
2022/11/03 23:02:14;;;;;;;4.80;2.78;;;12.50;85.00;;;;;;5053944;28;20029;-39
2022/11/03 23:04:39;;;;;;;6.97;2.95;;;12.50;85.10;;;;;;5053948;28;20056;-38
2022/11/03 23:07:05;;;;;;;5.43;3.03;;;12.50;85.00;;;;;;5053824;28;20132;-44
2022/11/03 23:09:30;;;;;;;3.47;2.22;;;12.50;85.00;;;;;;5054191;28;20100;-39
2022/11/03 23:11:56;;;;;;;4.03;2.35;;;12.50;84.90;;;;;;5053835;28;20044;-39
2022/11/03 23:15:30;;;;;;;3.17;2.42;;;12.50;85.40;;;;;;5054282;28;20053;-38
2022/11/03 23:17:10;;;;;;;4.35;3.08;;;12.30;86.40;;;;;;5053533;28;20061;-38
2022/11/03 23:22:19;;;;;;;6.20;4.57;;;11.80;89.40;;;;;;5053852;28;20078;-38
2022/11/03 23:25:00;;;;;;;5.20;3.97;;;11.70;90.30;;;;;;5053512;28;20104;-39
2022/11/03 23:27:28;;;;;;;3.88;2.92;;;11.50;91.00;;;;;;5053604;28;20025;-38
2022/11/03 23:29:54;;;;;;;3.80;2.38;;;11.40;90.90;;;;;;5053778;28;20466;-39
2022/11/03 23:32:20;;;;;;;2.25;1.50;;;11.30;89.80;;;;;;5053815;28;20078;-39
2022/11/03 23:34:45;;;;;;;2.42;1.25;;;11.10;88.60;;;;;;5053457;28;20102;-39
2022/11/03 23:37:14;;;;;;;3.13;2.13;;;11.10;88.40;;;;;;5052108;28;20025;-39
2022/11/03 23:39:39;;;;;;;2.22;1.67;;;11.00;88.10;;;;;;5053229;28;20086;-38